Terminal Aerodrome Forecast
Issued by NWS

Home | Current Version | Previous Version | Text Only | Print | Product List | Glossary On
Versions: 1 2 3 4 5 6 7 8 9 10 11 12 13
000
FTUS46 KPDT 292300
TAFDLS
TAF
KDLS 292320Z 3000/3024 32013G20KT P6SM SCT150 BKN250
     FM300400 31010KT P6SM SCT150 SCT250
     FM301000 31007KT P6SM SKC
     FM301800 32014G20KT P6SM FEW150=

USA.gov is the U.S. government's official web portal to all federal, state and local government web resources and services.